Port Hueneme CBC Base, California
Current Conditions -  °F | °C
As of 11:51 PM on Monday 26 Jan 2015 (Local Time) from KOXR Reporting Station
Overcast Overcast  
Wind Chill: 58°   Ceiling: 7500
Heat Index: 58°   Visibility: 10mi
Dew Point: 53°   Wind: 5mph
Humidity: 84%   Direction: 80°E
Pressure: 30.1"   Gusts: NA
Location:  34.15°N, 119.19°W
Report Text: KOXR 270751Z AUTO 08004KT 10SM OVC075 14/12 A3010 RMK AO2 SLP192 T01440117 402610139
Loading
Personal Weather Stations






























Interactive Weather Map New forecast layout! Learn more

10-Day Weather Forecast

Advertisements
Track Severe Weather on mobile